Terminal Aerodrome Forecast
Issued by NWS Omaha/Valley, NE

Home | Current Version | Previous Version | Graphics & Text | Print | Product List | Glossary On
Versions: 1 2 3 4 5 6 7 8 9 10 11 12 13 14 15 16 17 18 19 20 21
000
FTUS43 KOAX 182000 AAA
TAFOFK
TAF AMD
KOFK 182000Z 1820/1918 31008KT P6SM OVC120
     FM190300 05008KT P6SM VCSH BKN080
      TEMPO 1903/1905 4SM TS OVC040CB
     FM190500 01008KT P6SM -SHRA BKN070 PROB30 1905/1908 4SM TS
      OVC015CB
     FM190800 01008KT P6SM -SHRA OVC015 PROB30 1908/1912 4SM TS
      OVC007CB
     FM191300 05008KT 5SM SHRA OVC007 PROB30 1913/1915 2SM TS
      OVC003CB=

USA.gov is the U.S. government's official web portal to all federal, state and local government web resources and services.